sensor_id;sensor_type;location;lat;lon;timestamp;P1;durP1;ratioP1;P2;durP2;ratioP2
64938;SDS011;51453;47.738;7.420;2022-12-07T00:01:16;27.30;;;16.17;;
64938;SDS011;51453;47.738;7.420;2022-12-07T00:03:44;27.67;;;16.05;;
64938;SDS011;51453;47.738;7.420;2022-12-07T00:06:12;27.30;;;16.33;;
64938;SDS011;51453;47.738;7.420;2022-12-07T00:08:39;26.08;;;15.68;;
64938;SDS011;51453;47.738;7.420;2022-12-07T00:11:06;26.90;;;16.83;;
64938;SDS011;51453;47.738;7.420;2022-12-07T00:13:36;25.17;;;15.55;;
64938;SDS011;51453;47.738;7.420;2022-12-07T00:16:03;25.02;;;16.10;;
64938;SDS011;51453;47.738;7.420;2022-12-07T00:18:30;24.98;;;15.93;;
64938;SDS011;51453;47.738;7.420;2022-12-07T00:23:34;23.45;;;14.98;;
64938;SDS011;51453;47.738;7.420;2022-12-07T00:26:07;24.88;;;15.48;;
64938;SDS011;51453;47.738;7.420;2022-12-07T00:28:54;27.67;;;15.40;;
64938;SDS011;51453;47.738;7.420;2022-12-07T00:31:22;26.98;;;15.90;;
64938;SDS011;51453;47.738;7.420;2022-12-07T00:33:50;25.67;;;16.08;;
64938;SDS011;51453;47.738;7.420;2022-12-07T00:36:17;27.23;;;16.02;;
64938;SDS011;51453;47.738;7.420;2022-12-07T00:38:44;24.83;;;15.45;;
64938;SDS011;51453;47.738;7.420;2022-12-07T00:41:11;26.45;;;16.08;;
64938;SDS011;51453;47.738;7.420;2022-12-07T00:43:45;27.40;;;16.45;;
64938;SDS011;51453;47.738;7.420;2022-12-07T00:46:12;26.38;;;15.82;;
64938;SDS011;51453;47.738;7.420;2022-12-07T00:48:38;25.45;;;16.20;;
64938;SDS011;51453;47.738;7.420;2022-12-07T00:51:04;26.70;;;15.82;;
64938;SDS011;51453;47.738;7.420;2022-12-07T00:53:30;28.15;;;16.05;;
64938;SDS011;51453;47.738;7.420;2022-12-07T00:56:04;26.08;;;15.68;;
64938;SDS011;51453;47.738;7.420;2022-12-07T00:58:37;26.35;;;16.15;;
64938;SDS011;51453;47.738;7.420;2022-12-07T01:01:03;26.88;;;16.48;;
64938;SDS011;51453;47.738;7.420;2022-12-07T01:03:30;30.15;;;17.75;;
64938;SDS011;51453;47.738;7.420;2022-12-07T01:05:56;25.73;;;15.60;;
64938;SDS011;51453;47.738;7.420;2022-12-07T01:08:23;27.60;;;16.77;;
64938;SDS011;51453;47.738;7.420;2022-12-07T01:10:56;27.90;;;16.77;;
64938;SDS011;51453;47.738;7.420;2022-12-07T01:13:24;30.92;;;18.15;;
64938;SDS011;51453;47.738;7.420;2022-12-07T01:15:49;32.58;;;17.80;;
64938;SDS011;51453;47.738;7.420;2022-12-07T01:18:15;30.23;;;18.15;;
64938;SDS011;51453;47.738;7.420;2022-12-07T01:20:41;29.10;;;17.48;;
64938;SDS011;51453;47.738;7.420;2022-12-07T01:23:06;30.35;;;17.80;;
64938;SDS011;51453;47.738;7.420;2022-12-07T01:25:32;26.95;;;17.17;;
64938;SDS011;51453;47.738;7.420;2022-12-07T01:27:58;27.92;;;17.65;;
64938;SDS011;51453;47.738;7.420;2022-12-07T01:30:23;27.95;;;16.70;;
64938;SDS011;51453;47.738;7.420;2022-12-07T01:32:49;28.27;;;16.40;;
64938;SDS011;51453;47.738;7.420;2022-12-07T01:35:15;26.63;;;16.73;;
64938;SDS011;51453;47.738;7.420;2022-12-07T01:37:40;26.40;;;15.73;;
64938;SDS011;51453;47.738;7.420;2022-12-07T01:40:06;28.23;;;16.30;;
64938;SDS011;51453;47.738;7.420;2022-12-07T01:42:33;28.10;;;16.55;;
64938;SDS011;51453;47.738;7.420;2022-12-07T01:47:44;28.42;;;16.60;;
64938;SDS011;51453;47.738;7.420;2022-12-07T01:50:12;27.10;;;16.67;;
64938;SDS011;51453;47.738;7.420;2022-12-07T01:52:38;27.60;;;17.40;;
64938;SDS011;51453;47.738;7.420;2022-12-07T01:55:07;27.00;;;16.70;;
64938;SDS011;51453;47.738;7.420;2022-12-07T01:57:36;31.25;;;17.60;;
64938;SDS011;51453;47.738;7.420;2022-12-07T02:00:05;28.67;;;17.10;;
64938;SDS011;51453;47.738;7.420;2022-12-07T02:02:33;27.67;;;16.92;;
64938;SDS011;51453;47.738;7.420;2022-12-07T02:05:03;28.63;;;17.42;;
64938;SDS011;51453;47.738;7.420;2022-12-07T02:07:31;29.90;;;17.42;;
64938;SDS011;51453;47.738;7.420;2022-12-07T02:12:53;31.70;;;17.65;;
64938;SDS011;51453;47.738;7.420;2022-12-07T02:30:10;27.05;;;16.13;;
64938;SDS011;51453;47.738;7.420;2022-12-07T02:35:23;26.13;;;16.08;;
64938;SDS011;51453;47.738;7.420;2022-12-07T02:43:16;30.05;;;16.52;;
64938;SDS011;51453;47.738;7.420;2022-12-07T02:45:49;27.83;;;16.67;;
64938;SDS011;51453;47.738;7.420;2022-12-07T02:48:17;26.60;;;16.38;;
64938;SDS011;51453;47.738;7.420;2022-12-07T02:50:49;27.58;;;15.55;;
64938;SDS011;51453;47.738;7.420;2022-12-07T02:53:31;29.00;;;16.60;;
64938;SDS011;51453;47.738;7.420;2022-12-07T02:56:05;26.05;;;16.92;;
64938;SDS011;51453;47.738;7.420;2022-12-07T03:06:53;27.35;;;16.30;;
64938;SDS011;51453;47.738;7.420;2022-12-07T03:12:02;27.42;;;16.40;;
64938;SDS011;51453;47.738;7.420;2022-12-07T03:14:40;26.77;;;15.68;;
64938;SDS011;51453;47.738;7.420;2022-12-07T03:17:12;28.02;;;16.75;;
64938;SDS011;51453;47.738;7.420;2022-12-07T03:19:47;34.75;;;17.60;;
64938;SDS011;51453;47.738;7.420;2022-12-07T03:22:15;28.98;;;15.85;;
64938;SDS011;51453;47.738;7.420;2022-12-07T03:24:45;27.45;;;16.50;;
64938;SDS011;51453;47.738;7.420;2022-12-07T03:27:22;28.25;;;17.30;;
64938;SDS011;51453;47.738;7.420;2022-12-07T03:30:00;27.38;;;16.35;;
64938;SDS011;51453;47.738;7.420;2022-12-07T03:35:16;26.20;;;16.25;;
64938;SDS011;51453;47.738;7.420;2022-12-07T03:43:25;31.20;;;17.13;;
64938;SDS011;51453;47.738;7.420;2022-12-07T03:45:56;27.67;;;17.30;;
64938;SDS011;51453;47.738;7.420;2022-12-07T03:52:00;27.52;;;16.02;;
64938;SDS011;51453;47.738;7.420;2022-12-07T03:57:41;27.75;;;16.33;;
64938;SDS011;51453;47.738;7.420;2022-12-07T04:00:09;29.30;;;16.95;;
64938;SDS011;51453;47.738;7.420;2022-12-07T04:02:38;33.03;;;17.80;;
64938;SDS011;51453;47.738;7.420;2022-12-07T04:05:04;28.58;;;16.75;;
64938;SDS011;51453;47.738;7.420;2022-12-07T04:07:30;32.92;;;17.23;;
64938;SDS011;51453;47.738;7.420;2022-12-07T04:09:56;39.65;;;17.08;;
64938;SDS011;51453;47.738;7.420;2022-12-07T04:12:22;27.45;;;15.32;;
64938;SDS011;51453;47.738;7.420;2022-12-07T04:14:48;28.35;;;16.58;;
64938;SDS011;51453;47.738;7.420;2022-12-07T04:17:13;29.92;;;16.25;;
64938;SDS011;51453;47.738;7.420;2022-12-07T04:19:39;32.05;;;17.63;;
64938;SDS011;51453;47.738;7.420;2022-12-07T04:22:05;27.73;;;15.68;;
64938;SDS011;51453;47.738;7.420;2022-12-07T04:24:31;29.17;;;17.27;;
64938;SDS011;51453;47.738;7.420;2022-12-07T04:26:57;26.27;;;14.52;;
64938;SDS011;51453;47.738;7.420;2022-12-07T04:29:22;21.33;;;13.13;;
64938;SDS011;51453;47.738;7.420;2022-12-07T04:31:48;29.25;;;15.32;;
64938;SDS011;51453;47.738;7.420;2022-12-07T04:34:15;27.27;;;15.90;;
64938;SDS011;51453;47.738;7.420;2022-12-07T04:36:41;23.48;;;13.95;;
64938;SDS011;51453;47.738;7.420;2022-12-07T04:39:09;22.63;;;13.85;;
64938;SDS011;51453;47.738;7.420;2022-12-07T04:41:59;24.25;;;14.73;;
64938;SDS011;51453;47.738;7.420;2022-12-07T04:44:26;27.55;;;14.90;;
64938;SDS011;51453;47.738;7.420;2022-12-07T04:46:52;25.98;;;15.00;;
64938;SDS011;51453;47.738;7.420;2022-12-07T04:49:19;29.13;;;15.90;;
64938;SDS011;51453;47.738;7.420;2022-12-07T04:51:44;30.75;;;17.00;;
64938;SDS011;51453;47.738;7.420;2022-12-07T04:54:11;30.52;;;16.65;;
64938;SDS011;51453;47.738;7.420;2022-12-07T04:56:38;28.85;;;16.27;;
64938;SDS011;51453;47.738;7.420;2022-12-07T04:59:03;29.00;;;16.65;;
64938;SDS011;51453;47.738;7.420;2022-12-07T05:01:30;31.65;;;16.25;;
64938;SDS011;51453;47.738;7.420;2022-12-07T05:03:56;30.58;;;16.45;;
64938;SDS011;51453;47.738;7.420;2022-12-07T05:06:22;31.25;;;16.60;;
64938;SDS011;51453;47.738;7.420;2022-12-07T05:08:48;35.67;;;18.02;;
64938;SDS011;51453;47.738;7.420;2022-12-07T05:11:14;31.92;;;19.23;;
64938;SDS011;51453;47.738;7.420;2022-12-07T05:14:00;33.75;;;19.63;;
64938;SDS011;51453;47.738;7.420;2022-12-07T05:16:27;35.03;;;21.15;;
64938;SDS011;51453;47.738;7.420;2022-12-07T05:18:53;36.40;;;20.75;;
64938;SDS011;51453;47.738;7.420;2022-12-07T05:21:18;32.33;;;19.20;;
64938;SDS011;51453;47.738;7.420;2022-12-07T05:23:44;39.70;;;20.42;;
64938;SDS011;51453;47.738;7.420;2022-12-07T05:26:12;36.10;;;19.05;;
64938;SDS011;51453;47.738;7.420;2022-12-07T05:28:38;33.40;;;19.25;;
64938;SDS011;51453;47.738;7.420;2022-12-07T05:31:04;35.22;;;18.80;;
64938;SDS011;51453;47.738;7.420;2022-12-07T05:33:29;38.60;;;18.77;;
64938;SDS011;51453;47.738;7.420;2022-12-07T05:35:55;36.90;;;19.17;;
64938;SDS011;51453;47.738;7.420;2022-12-07T05:38:21;38.58;;;19.52;;
64938;SDS011;51453;47.738;7.420;2022-12-07T05:40:46;35.70;;;19.45;;
64938;SDS011;51453;47.738;7.420;2022-12-07T05:43:12;35.08;;;19.35;;
64938;SDS011;51453;47.738;7.420;2022-12-07T05:45:38;36.67;;;19.13;;
64938;SDS011;51453;47.738;7.420;2022-12-07T05:48:03;36.20;;;18.98;;
64938;SDS011;51453;47.738;7.420;2022-12-07T05:50:29;35.78;;;19.25;;
64938;SDS011;51453;47.738;7.420;2022-12-07T05:52:55;40.42;;;21.45;;
64938;SDS011;51453;47.738;7.420;2022-12-07T05:55:20;35.67;;;20.80;;
64938;SDS011;51453;47.738;7.420;2022-12-07T05:57:46;38.28;;;20.33;;
64938;SDS011;51453;47.738;7.420;2022-12-07T06:00:30;37.38;;;19.50;;
64938;SDS011;51453;47.738;7.420;2022-12-07T06:02:56;39.00;;;20.75;;
64938;SDS011;51453;47.738;7.420;2022-12-07T06:05:22;40.05;;;19.90;;
64938;SDS011;51453;47.738;7.420;2022-12-07T06:07:48;42.17;;;19.38;;
64938;SDS011;51453;47.738;7.420;2022-12-07T06:10:14;39.70;;;19.67;;
64938;SDS011;51453;47.738;7.420;2022-12-07T06:12:40;37.85;;;20.38;;
64938;SDS011;51453;47.738;7.420;2022-12-07T06:15:08;33.15;;;18.55;;
64938;SDS011;51453;47.738;7.420;2022-12-07T06:17:35;39.25;;;19.45;;
64938;SDS011;51453;47.738;7.420;2022-12-07T06:20:01;37.70;;;19.88;;
64938;SDS011;51453;47.738;7.420;2022-12-07T06:22:27;42.15;;;19.92;;
64938;SDS011;51453;47.738;7.420;2022-12-07T06:24:53;40.60;;;21.13;;
64938;SDS011;51453;47.738;7.420;2022-12-07T06:27:19;39.03;;;21.17;;
64938;SDS011;51453;47.738;7.420;2022-12-07T06:29:45;40.90;;;20.55;;
64938;SDS011;51453;47.738;7.420;2022-12-07T06:32:10;42.03;;;22.70;;
64938;SDS011;51453;47.738;7.420;2022-12-07T06:34:37;52.85;;;23.63;;
64938;SDS011;51453;47.738;7.420;2022-12-07T06:37:02;47.15;;;23.10;;
64938;SDS011;51453;47.738;7.420;2022-12-07T06:39:28;40.85;;;20.90;;
64938;SDS011;51453;47.738;7.420;2022-12-07T06:41:54;46.72;;;22.02;;
64938;SDS011;51453;47.738;7.420;2022-12-07T06:44:21;41.95;;;20.85;;
64938;SDS011;51453;47.738;7.420;2022-12-07T06:46:47;40.40;;;20.65;;
64938;SDS011;51453;47.738;7.420;2022-12-07T06:49:14;41.33;;;20.92;;
64938;SDS011;51453;47.738;7.420;2022-12-07T06:51:40;45.70;;;21.77;;
64938;SDS011;51453;47.738;7.420;2022-12-07T06:54:09;47.58;;;22.05;;
64938;SDS011;51453;47.738;7.420;2022-12-07T06:56:35;48.33;;;23.23;;
64938;SDS011;51453;47.738;7.420;2022-12-07T06:59:01;61.17;;;26.85;;
64938;SDS011;51453;47.738;7.420;2022-12-07T07:01:28;67.25;;;30.60;;
64938;SDS011;51453;47.738;7.420;2022-12-07T07:03:54;61.88;;;30.42;;
64938;SDS011;51453;47.738;7.420;2022-12-07T07:06:20;47.95;;;22.30;;
64938;SDS011;51453;47.738;7.420;2022-12-07T07:08:45;55.83;;;24.05;;
64938;SDS011;51453;47.738;7.420;2022-12-07T07:11:11;50.78;;;23.90;;
64938;SDS011;51453;47.738;7.420;2022-12-07T07:13:37;49.90;;;22.42;;
64938;SDS011;51453;47.738;7.420;2022-12-07T07:16:03;43.70;;;21.67;;
64938;SDS011;51453;47.738;7.420;2022-12-07T07:18:29;42.10;;;21.20;;
64938;SDS011;51453;47.738;7.420;2022-12-07T07:20:55;45.28;;;21.50;;
64938;SDS011;51453;47.738;7.420;2022-12-07T07:23:21;39.70;;;19.88;;
64938;SDS011;51453;47.738;7.420;2022-12-07T07:25:47;51.30;;;23.83;;
64938;SDS011;51453;47.738;7.420;2022-12-07T07:28:13;64.47;;;27.92;;
64938;SDS011;51453;47.738;7.420;2022-12-07T07:30:39;55.40;;;23.95;;
64938;SDS011;51453;47.738;7.420;2022-12-07T07:33:05;48.67;;;22.50;;
64938;SDS011;51453;47.738;7.420;2022-12-07T07:35:31;48.92;;;21.80;;
64938;SDS011;51453;47.738;7.420;2022-12-07T07:37:58;50.47;;;21.77;;
64938;SDS011;51453;47.738;7.420;2022-12-07T07:40:24;48.42;;;23.42;;
64938;SDS011;51453;47.738;7.420;2022-12-07T07:42:50;56.13;;;24.65;;
64938;SDS011;51453;47.738;7.420;2022-12-07T07:45:18;54.60;;;25.38;;
64938;SDS011;51453;47.738;7.420;2022-12-07T07:47:45;59.15;;;25.33;;
64938;SDS011;51453;47.738;7.420;2022-12-07T07:50:10;51.25;;;24.10;;
64938;SDS011;51453;47.738;7.420;2022-12-07T07:52:36;52.83;;;26.17;;
64938;SDS011;51453;47.738;7.420;2022-12-07T07:55:02;46.38;;;22.60;;
64938;SDS011;51453;47.738;7.420;2022-12-07T07:57:28;48.35;;;23.52;;
64938;SDS011;51453;47.738;7.420;2022-12-07T07:59:53;55.38;;;24.80;;
64938;SDS011;51453;47.738;7.420;2022-12-07T08:02:22;54.92;;;25.13;;
64938;SDS011;51453;47.738;7.420;2022-12-07T08:04:48;60.60;;;27.42;;
64938;SDS011;51453;47.738;7.420;2022-12-07T08:07:14;54.15;;;25.70;;
64938;SDS011;51453;47.738;7.420;2022-12-07T08:09:40;63.88;;;28.98;;
64938;SDS011;51453;47.738;7.420;2022-12-07T08:12:06;52.95;;;26.17;;
64938;SDS011;51453;47.738;7.420;2022-12-07T08:14:33;62.20;;;27.80;;
64938;SDS011;51453;47.738;7.420;2022-12-07T08:16:59;60.55;;;28.88;;
64938;SDS011;51453;47.738;7.420;2022-12-07T08:19:26;61.50;;;27.95;;
64938;SDS011;51453;47.738;7.420;2022-12-07T08:21:51;58.88;;;28.92;;
64938;SDS011;51453;47.738;7.420;2022-12-07T08:24:17;57.67;;;27.27;;
64938;SDS011;51453;47.738;7.420;2022-12-07T08:26:43;61.63;;;27.10;;
64938;SDS011;51453;47.738;7.420;2022-12-07T08:29:09;58.78;;;27.38;;
64938;SDS011;51453;47.738;7.420;2022-12-07T08:31:35;60.22;;;29.13;;
64938;SDS011;51453;47.738;7.420;2022-12-07T08:34:00;63.65;;;28.58;;
64938;SDS011;51453;47.738;7.420;2022-12-07T08:36:29;58.92;;;28.38;;
64938;SDS011;51453;47.738;7.420;2022-12-07T08:38:55;62.63;;;30.58;;
64938;SDS011;51453;47.738;7.420;2022-12-07T08:41:21;76.07;;;34.47;;
64938;SDS011;51453;47.738;7.420;2022-12-07T08:43:46;81.03;;;35.88;;
64938;SDS011;51453;47.738;7.420;2022-12-07T08:46:23;68.95;;;33.05;;
64938;SDS011;51453;47.738;7.420;2022-12-07T08:48:58;75.55;;;33.85;;
64938;SDS011;51453;47.738;7.420;2022-12-07T08:51:29;50.28;;;25.60;;
64938;SDS011;51453;47.738;7.420;2022-12-07T08:53:55;42.90;;;22.50;;
64938;SDS011;51453;47.738;7.420;2022-12-07T08:56:23;42.63;;;22.48;;
64938;SDS011;51453;47.738;7.420;2022-12-07T08:58:50;37.97;;;21.60;;
64938;SDS011;51453;47.738;7.420;2022-12-07T09:01:16;42.60;;;21.20;;
64938;SDS011;51453;47.738;7.420;2022-12-07T09:03:42;43.92;;;23.13;;
64938;SDS011;51453;47.738;7.420;2022-12-07T09:06:07;46.35;;;24.45;;
64938;SDS011;51453;47.738;7.420;2022-12-07T09:08:38;41.80;;;22.63;;
64938;SDS011;51453;47.738;7.420;2022-12-07T09:11:07;44.50;;;20.85;;
64938;SDS011;51453;47.738;7.420;2022-12-07T09:13:32;43.03;;;21.45;;
64938;SDS011;51453;47.738;7.420;2022-12-07T09:15:58;38.30;;;21.05;;
64938;SDS011;51453;47.738;7.420;2022-12-07T09:18:24;34.45;;;19.75;;
64938;SDS011;51453;47.738;7.420;2022-12-07T09:20:50;34.58;;;19.65;;
64938;SDS011;51453;47.738;7.420;2022-12-07T09:23:16;39.80;;;19.48;;
64938;SDS011;51453;47.738;7.420;2022-12-07T09:25:42;35.67;;;19.10;;
64938;SDS011;51453;47.738;7.420;2022-12-07T09:28:08;39.90;;;20.33;;
64938;SDS011;51453;47.738;7.420;2022-12-07T09:30:34;33.13;;;19.40;;
64938;SDS011;51453;47.738;7.420;2022-12-07T09:33:02;41.22;;;19.85;;
64938;SDS011;51453;47.738;7.420;2022-12-07T09:35:28;34.65;;;20.10;;
64938;SDS011;51453;47.738;7.420;2022-12-07T09:37:54;41.78;;;21.88;;
64938;SDS011;51453;47.738;7.420;2022-12-07T09:40:21;48.13;;;21.88;;
64938;SDS011;51453;47.738;7.420;2022-12-07T09:42:49;39.67;;;21.05;;
64938;SDS011;51453;47.738;7.420;2022-12-07T09:45:22;35.28;;;20.05;;
64938;SDS011;51453;47.738;7.420;2022-12-07T09:47:56;37.38;;;20.60;;
64938;SDS011;51453;47.738;7.420;2022-12-07T09:50:24;37.63;;;20.42;;
64938;SDS011;51453;47.738;7.420;2022-12-07T09:52:51;38.97;;;21.75;;
64938;SDS011;51453;47.738;7.420;2022-12-07T09:55:28;34.75;;;20.58;;
64938;SDS011;51453;47.738;7.420;2022-12-07T09:57:55;33.92;;;19.67;;
64938;SDS011;51453;47.738;7.420;2022-12-07T10:00:23;33.55;;;19.23;;
64938;SDS011;51453;47.738;7.420;2022-12-07T10:03:00;30.50;;;17.48;;
64938;SDS011;51453;47.738;7.420;2022-12-07T10:05:32;30.33;;;16.25;;
64938;SDS011;51453;47.738;7.420;2022-12-07T10:08:05;31.13;;;17.00;;
64938;SDS011;51453;47.738;7.420;2022-12-07T10:10:33;32.65;;;17.88;;
64938;SDS011;51453;47.738;7.420;2022-12-07T10:13:07;28.63;;;16.13;;
64938;SDS011;51453;47.738;7.420;2022-12-07T10:15:48;29.00;;;17.23;;
64938;SDS011;51453;47.738;7.420;2022-12-07T10:23:35;30.63;;;18.00;;
64938;SDS011;51453;47.738;7.420;2022-12-07T10:28:55;31.17;;;17.90;;
64938;SDS011;51453;47.738;7.420;2022-12-07T10:31:23;35.58;;;18.25;;
64938;SDS011;51453;47.738;7.420;2022-12-07T10:33:56;31.33;;;16.75;;
64938;SDS011;51453;47.738;7.420;2022-12-07T10:36:24;28.10;;;17.35;;
64938;SDS011;51453;47.738;7.420;2022-12-07T10:44:24;31.52;;;18.30;;
64938;SDS011;51453;47.738;7.420;2022-12-07T10:49:29;26.17;;;15.50;;
64938;SDS011;51453;47.738;7.420;2022-12-07T11:03:52;20.37;;;12.40;;
64938;SDS011;51453;47.738;7.420;2022-12-07T11:20:53;15.70;;;8.15;;
64938;SDS011;51453;47.738;7.420;2022-12-07T11:36:51;15.13;;;9.02;;
64938;SDS011;51453;47.738;7.420;2022-12-07T11:42:15;13.20;;;8.30;;
64938;SDS011;51453;47.738;7.420;2022-12-07T11:47:28;15.80;;;8.55;;
64938;SDS011;51453;47.738;7.420;2022-12-07T11:52:48;9.65;;;6.25;;
64938;SDS011;51453;47.738;7.420;2022-12-07T11:55:24;10.68;;;6.68;;
64938;SDS011;51453;47.738;7.420;2022-12-07T11:57:52;10.52;;;6.95;;
64938;SDS011;51453;47.738;7.420;2022-12-07T12:00:26;11.02;;;7.32;;
64938;SDS011;51453;47.738;7.420;2022-12-07T12:05:41;12.20;;;7.60;;
64938;SDS011;51453;47.738;7.420;2022-12-07T12:08:21;14.02;;;8.40;;
64938;SDS011;51453;47.738;7.420;2022-12-07T12:11:03;12.25;;;7.65;;
64938;SDS011;51453;47.738;7.420;2022-12-07T12:13:54;12.93;;;7.88;;
64938;SDS011;51453;47.738;7.420;2022-12-07T12:19:40;12.05;;;8.20;;
64938;SDS011;51453;47.738;7.420;2022-12-07T12:24:44;14.73;;;9.77;;
64938;SDS011;51453;47.738;7.420;2022-12-07T12:27:22;14.45;;;9.30;;
64938;SDS011;51453;47.738;7.420;2022-12-07T12:29:55;15.52;;;9.20;;
64938;SDS011;51453;47.738;7.420;2022-12-07T12:32:45;15.88;;;7.90;;
64938;SDS011;51453;47.738;7.420;2022-12-07T12:35:21;13.00;;;8.25;;
64938;SDS011;51453;47.738;7.420;2022-12-07T12:37:48;14.18;;;8.80;;
64938;SDS011;51453;47.738;7.420;2022-12-07T12:42:49;11.65;;;7.07;;
64938;SDS011;51453;47.738;7.420;2022-12-07T12:47:56;9.90;;;6.53;;
64938;SDS011;51453;47.738;7.420;2022-12-07T12:50:27;9.85;;;6.05;;
64938;SDS011;51453;47.738;7.420;2022-12-07T12:53:16;9.50;;;6.53;;
64938;SDS011;51453;47.738;7.420;2022-12-07T12:58:28;11.65;;;6.57;;
64938;SDS011;51453;47.738;7.420;2022-12-07T13:03:59;15.48;;;7.55;;
64938;SDS011;51453;47.738;7.420;2022-12-07T13:08:51;12.15;;;7.18;;
64938;SDS011;51453;47.738;7.420;2022-12-07T13:11:29;12.10;;;7.13;;
64938;SDS011;51453;47.738;7.420;2022-12-07T13:19:56;9.48;;;6.22;;
64938;SDS011;51453;47.738;7.420;2022-12-07T13:27:43;9.77;;;6.68;;
64938;SDS011;51453;47.738;7.420;2022-12-07T13:30:20;9.18;;;6.20;;
64938;SDS011;51453;47.738;7.420;2022-12-07T13:32:53;9.77;;;6.20;;
64938;SDS011;51453;47.738;7.420;2022-12-07T13:35:30;10.15;;;6.50;;
64938;SDS011;51453;47.738;7.420;2022-12-07T13:37:58;9.93;;;5.90;;
64938;SDS011;51453;47.738;7.420;2022-12-07T13:40:26;9.98;;;6.07;;
64938;SDS011;51453;47.738;7.420;2022-12-07T13:43:02;7.53;;;5.60;;
64938;SDS011;51453;47.738;7.420;2022-12-07T13:45:31;8.63;;;6.38;;
64938;SDS011;51453;47.738;7.420;2022-12-07T13:48:35;8.68;;;6.00;;
64938;SDS011;51453;47.738;7.420;2022-12-07T13:51:12;11.45;;;6.68;;
64938;SDS011;51453;47.738;7.420;2022-12-07T13:53:53;10.07;;;5.78;;
64938;SDS011;51453;47.738;7.420;2022-12-07T13:56:26;7.72;;;4.82;;
64938;SDS011;51453;47.738;7.420;2022-12-07T13:58:57;8.00;;;4.97;;
64938;SDS011;51453;47.738;7.420;2022-12-07T14:01:23;6.78;;;4.93;;
64938;SDS011;51453;47.738;7.420;2022-12-07T14:03:50;8.70;;;5.95;;
64938;SDS011;51453;47.738;7.420;2022-12-07T14:06:50;8.45;;;5.85;;
64938;SDS011;51453;47.738;7.420;2022-12-07T14:11:44;9.32;;;5.40;;
64938;SDS011;51453;47.738;7.420;2022-12-07T14:14:20;8.50;;;6.05;;
64938;SDS011;51453;47.738;7.420;2022-12-07T14:22:36;9.02;;;5.70;;
64938;SDS011;51453;47.738;7.420;2022-12-07T14:27:38;11.65;;;6.20;;
64938;SDS011;51453;47.738;7.420;2022-12-07T14:30:04;9.40;;;5.82;;
64938;SDS011;51453;47.738;7.420;2022-12-07T14:32:31;10.18;;;5.72;;
64938;SDS011;51453;47.738;7.420;2022-12-07T14:35:10;7.85;;;5.18;;
64938;SDS011;51453;47.738;7.420;2022-12-07T14:37:38;8.15;;;5.18;;
64938;SDS011;51453;47.738;7.420;2022-12-07T14:40:05;7.85;;;5.30;;
64938;SDS011;51453;47.738;7.420;2022-12-07T14:42:32;9.13;;;5.00;;
64938;SDS011;51453;47.738;7.420;2022-12-07T14:44:59;9.35;;;5.25;;
64938;SDS011;51453;47.738;7.420;2022-12-07T14:47:25;9.13;;;5.72;;
64938;SDS011;51453;47.738;7.420;2022-12-07T14:49:51;11.15;;;5.93;;
64938;SDS011;51453;47.738;7.420;2022-12-07T14:52:21;10.10;;;5.80;;
64938;SDS011;51453;47.738;7.420;2022-12-07T14:54:51;9.43;;;5.65;;
64938;SDS011;51453;47.738;7.420;2022-12-07T14:57:17;7.63;;;5.45;;
64938;SDS011;51453;47.738;7.420;2022-12-07T14:59:43;9.05;;;6.00;;
64938;SDS011;51453;47.738;7.420;2022-12-07T15:02:10;8.98;;;5.28;;
64938;SDS011;51453;47.738;7.420;2022-12-07T15:04:37;10.40;;;5.97;;
64938;SDS011;51453;47.738;7.420;2022-12-07T15:07:04;7.72;;;5.00;;
64938;SDS011;51453;47.738;7.420;2022-12-07T15:09:34;3.20;;;2.30;;
64938;SDS011;51453;47.738;7.420;2022-12-07T15:11:59;3.80;;;2.58;;
64938;SDS011;51453;47.738;7.420;2022-12-07T15:14:25;2.30;;;1.70;;
64938;SDS011;51453;47.738;7.420;2022-12-07T15:16:51;2.05;;;1.70;;
64938;SDS011;51453;47.738;7.420;2022-12-07T15:19:17;3.00;;;1.50;;
64938;SDS011;51453;47.738;7.420;2022-12-07T15:21:50;1.90;;;1.35;;
64938;SDS011;51453;47.738;7.420;2022-12-07T15:24:17;1.80;;;1.60;;
64938;SDS011;51453;47.738;7.420;2022-12-07T15:26:42;5.93;;;1.98;;
64938;SDS011;51453;47.738;7.420;2022-12-07T15:29:09;5.65;;;3.40;;
64938;SDS011;51453;47.738;7.420;2022-12-07T15:31:36;8.10;;;5.18;;
64938;SDS011;51453;47.738;7.420;2022-12-07T15:34:02;8.73;;;5.43;;
64938;SDS011;51453;47.738;7.420;2022-12-07T15:36:30;8.73;;;5.47;;
64938;SDS011;51453;47.738;7.420;2022-12-07T15:38:57;10.82;;;5.28;;
64938;SDS011;51453;47.738;7.420;2022-12-07T15:41:23;6.72;;;4.57;;
64938;SDS011;51453;47.738;7.420;2022-12-07T15:43:49;8.52;;;4.40;;
64938;SDS011;51453;47.738;7.420;2022-12-07T15:46:34;10.77;;;4.45;;
64938;SDS011;51453;47.738;7.420;2022-12-07T15:49:02;14.98;;;4.57;;
64938;SDS011;51453;47.738;7.420;2022-12-07T15:51:29;5.80;;;3.70;;
64938;SDS011;51453;47.738;7.420;2022-12-07T15:53:55;13.73;;;3.30;;
64938;SDS011;51453;47.738;7.420;2022-12-07T15:56:22;6.20;;;3.20;;
64938;SDS011;51453;47.738;7.420;2022-12-07T15:58:48;6.70;;;3.10;;
64938;SDS011;51453;47.738;7.420;2022-12-07T16:01:15;6.80;;;3.33;;
64938;SDS011;51453;47.738;7.420;2022-12-07T16:03:42;10.20;;;4.20;;
64938;SDS011;51453;47.738;7.420;2022-12-07T16:06:08;7.10;;;4.05;;
64938;SDS011;51453;47.738;7.420;2022-12-07T16:08:34;8.82;;;3.90;;
64938;SDS011;51453;47.738;7.420;2022-12-07T16:11:03;10.65;;;4.82;;
64938;SDS011;51453;47.738;7.420;2022-12-07T16:13:30;8.23;;;4.33;;
64938;SDS011;51453;47.738;7.420;2022-12-07T16:15:55;9.10;;;4.72;;
64938;SDS011;51453;47.738;7.420;2022-12-07T16:18:22;8.70;;;4.68;;
64938;SDS011;51453;47.738;7.420;2022-12-07T16:20:51;8.25;;;4.75;;
64938;SDS011;51453;47.738;7.420;2022-12-07T16:23:16;9.95;;;5.05;;
64938;SDS011;51453;47.738;7.420;2022-12-07T16:25:42;9.50;;;4.38;;
64938;SDS011;51453;47.738;7.420;2022-12-07T16:28:08;13.68;;;5.25;;
64938;SDS011;51453;47.738;7.420;2022-12-07T16:30:33;10.77;;;5.68;;
64938;SDS011;51453;47.738;7.420;2022-12-07T16:32:59;10.00;;;5.50;;
64938;SDS011;51453;47.738;7.420;2022-12-07T16:35:25;18.33;;;6.63;;
64938;SDS011;51453;47.738;7.420;2022-12-07T16:37:50;11.32;;;6.57;;
64938;SDS011;51453;47.738;7.420;2022-12-07T16:40:16;14.35;;;7.28;;
64938;SDS011;51453;47.738;7.420;2022-12-07T16:42:42;23.83;;;9.23;;
64938;SDS011;51453;47.738;7.420;2022-12-07T16:45:07;24.10;;;9.55;;
64938;SDS011;51453;47.738;7.420;2022-12-07T16:47:36;27.35;;;9.52;;
64938;SDS011;51453;47.738;7.420;2022-12-07T16:50:02;28.80;;;9.60;;
64938;SDS011;51453;47.738;7.420;2022-12-07T16:52:28;22.30;;;9.82;;
64938;SDS011;51453;47.738;7.420;2022-12-07T16:54:54;30.48;;;9.93;;
64938;SDS011;51453;47.738;7.420;2022-12-07T16:57:20;22.98;;;9.70;;
64938;SDS011;51453;47.738;7.420;2022-12-07T16:59:45;17.83;;;8.43;;
64938;SDS011;51453;47.738;7.420;2022-12-07T17:02:11;20.90;;;9.23;;
64938;SDS011;51453;47.738;7.420;2022-12-07T17:04:37;19.25;;;9.25;;
64938;SDS011;51453;47.738;7.420;2022-12-07T17:07:07;20.20;;;8.67;;
64938;SDS011;51453;47.738;7.420;2022-12-07T17:09:33;19.23;;;9.32;;
64938;SDS011;51453;47.738;7.420;2022-12-07T17:12:00;20.38;;;9.13;;
64938;SDS011;51453;47.738;7.420;2022-12-07T17:14:26;20.55;;;10.05;;
64938;SDS011;51453;47.738;7.420;2022-12-07T17:17:10;19.70;;;9.43;;
64938;SDS011;51453;47.738;7.420;2022-12-07T17:19:36;17.00;;;9.45;;
64938;SDS011;51453;47.738;7.420;2022-12-07T17:22:02;24.40;;;10.85;;